• Join FlightAware (Why Join?)
  • Login
  • US Flag 
05:07PM EST


 

Airport Tracker/Info


-or-


 

Live Flight TrackerFlight Track Log ✈ FIN666 ✈ 27-Mar-2014 ✈ EKCH / CPH - EFHK / HEL

Flight Track Log - Related Links

Times and Time Zones

All times are in EDT time to prevent confusion due to time zone crossing. See the FIN666 flight status page for this flight to view local times or setup timezone preferences in your user account.

Time Position Orientation Groundspeed Altitude Reporting Facility
EDT Latitude Longitude Course Direction KTS MPH feet Rate Location/Type
08:26AM 55.9164 13.2747 49° Northeast  Level Estimated
08:27AM 55.9905 13.4309 50° Northeast  Level Estimated
08:28AM 56.0644 13.5877 50° Northeast  Level Estimated
08:29AM 56.1381 13.7451 50° Northeast  Level Estimated
08:30AM 56.2117 13.9031 50° Northeast  Level Estimated
08:31AM 56.2850 14.0617 50° Northeast  Level Estimated
08:32AM 56.3581 14.2208 50° Northeast  Level Estimated
08:33AM 56.4310 14.3807 50° Northeast  Level Estimated
08:34AM 56.5037 14.5411 51° Northeast  Level Estimated
08:35AM 56.5762 14.7021 51° Northeast  Level Estimated
08:36AM 56.6485 14.8638 51° Northeast  Level Estimated
08:37AM 56.7206 15.0260 51° Northeast  Level Estimated
08:38AM 56.7925 15.1889 51° Northeast  Level Estimated
08:39AM 56.8641 15.3525 51° Northeast  Level Estimated
08:40AM 56.9356 15.5166 51° Northeast  Level Estimated
08:41AM 57.0068 15.6814 52° Northeast  Level Estimated
08:42AM 57.0778 15.8468 52° Northeast  Level Estimated
08:43AM 57.1486 16.0129 52° Northeast  Level Estimated
08:44AM 57.2192 16.1795 52° Northeast  Level Estimated
08:45AM 57.2895 16.3468 52° Northeast  Level Estimated
08:46AM 57.3596 16.5148 52° Northeast  Level Estimated
08:47AM 57.4295 16.6834 52° Northeast  Level Estimated
08:48AM 57.4992 16.8526 52° Northeast  Level Estimated
08:49AM 57.5686 17.0225 53° Northeast  Level Estimated
08:50AM 57.6341 17.1838 53° Northeast  Level Estimated
08:51AM 57.6994 17.3457 53° Northeast  Level Estimated
08:52AM 57.7645 17.5082 53° Northeast  Level Estimated
08:53AM 57.8293 17.6712 53° Northeast  Level Estimated
08:54AM 57.8940 17.8349 53° Northeast  Level Estimated
08:55AM 57.9584 17.9991 53° Northeast  Level Estimated
08:56AM 58.0227 18.1639 54° Northeast  Level Estimated
08:57AM 58.0867 18.3293 54° Northeast  Level Estimated
08:58AM 58.1505 18.4954 54° Northeast  Level Estimated
08:59AM 58.2141 18.6620 54° Northeast  Level Estimated
09:00AM 58.2774 18.8291 54° Northeast  Level Estimated
09:01AM 58.3406 18.9970 54° Northeast  Level Estimated
09:02AM 58.4035 19.1653 54° Northeast  Level Estimated
09:03AM 58.4662 19.3343 55° Northeast  Level Estimated
09:04AM 58.5287 19.5039 55° Northeast  Level Estimated
09:05AM 58.5909 19.6741 55° Northeast  Level Estimated
09:06AM 58.6530 19.8449 55° Northeast  Level Estimated
09:07AM 58.7148 20.0164 55° Northeast  Level Estimated
09:08AM 58.7763 20.1884 55° Northeast  Level Estimated
09:09AM 58.8377 20.3610 55° Northeast  Level Estimated
09:10AM 58.8988 20.5343 56° Northeast  Level Estimated
09:11AM 58.9597 20.7081 56° Northeast  Level Estimated
09:12AM 59.0203 20.8826 56° Northeast  Level Estimated
09:13AM 59.0807 21.0577 56° Northeast  Level Estimated
09:14AM 59.1409 21.2334 56° Northeast  Level Estimated
09:15AM 59.2009 21.4097 56° Northeast  Level Estimated
09:16AM 59.2605 21.5867 57° Northeast  Level Estimated
09:17AM 59.3200 21.7642 57° Northeast  Level Estimated
09:18AM 59.3792 21.9424 57° Northeast  Level Estimated
09:19AM 59.4382 22.1212 57° Northeast  Level Estimated
09:20AM 59.4969 22.3006 57° Northeast  Level Estimated
09:21AM 59.5554 22.4807 57° Northeast  Level Estimated
09:22AM 59.6136 22.6614 57° Northeast  Level Estimated
09:23AM 59.6716 22.8426 58° Northeast  Level Estimated
09:24AM 59.7293 23.0246 58° Northeast  Level Estimated
09:25AM 59.7868 23.2071 58° Northeast  Level Estimated
09:26AM 59.8440 23.3903 58° Northeast  Level Estimated
09:27AM 59.9010 23.5741 58° Northeast  Level Estimated
09:28AM 59.9577 23.7586 58° Northeast  Level Estimated
09:29AM 60.0142 23.9437 59° Northeast  Level Estimated
09:30AM 60.0704 24.1294 59° Northeast  Level Estimated
09:31AM 60.1263 24.3157 59° Northeast  Level Estimated
09:32AM 60.1820 24.5027 59° Northeast  Level Estimated
09:33AM 60.2374 24.6903 59° Northeast  Level Estimated
09:34AM 60.2925 24.8785 59° Northeast  Level Estimated
09:35AM 60.3172 24.9633 60° Northeast  Level Estimated
09:36AM 60.3172 24.9633 North  Level Estimated
09:37AM 60.3172 24.9633 North  Level Estimated
09:38AM 60.3172 24.9633 North  Level Estimated
09:39AM 60.3172 24.9633 North  Level Estimated
09:40AM 60.3172 24.9633 North  Level Estimated
09:41AM 60.3172 24.9633 North  Level Estimated
09:42AM 60.3172 24.9633 North  Level Estimated
09:43AM 60.3172 24.9633 North  Level Estimated
09:44AM 60.3172 24.9633 North  Level Estimated
09:45AM 60.3172 24.9633 North  Level Estimated